sensor_id;sensor_type;location;lat;lon;timestamp;P1;durP1;ratioP1;P2;durP2;ratioP2
11984;SDS011;6052;53.246;10.368;2024-02-21T00:01:25;19.17;;;8.97;;
11984;SDS011;6052;53.246;10.368;2024-02-21T00:03:55;22.47;;;8.53;;
11984;SDS011;6052;53.246;10.368;2024-02-21T00:06:28;21.97;;;8.07;;
11984;SDS011;6052;53.246;10.368;2024-02-21T00:08:58;19.57;;;8.90;;
11984;SDS011;6052;53.246;10.368;2024-02-21T00:11:28;23.07;;;8.70;;
11984;SDS011;6052;53.246;10.368;2024-02-21T00:13:58;21.53;;;8.33;;
11984;SDS011;6052;53.246;10.368;2024-02-21T00:16:27;23.50;;;9.03;;
11984;SDS011;6052;53.246;10.368;2024-02-21T00:18:57;25.80;;;8.97;;
11984;SDS011;6052;53.246;10.368;2024-02-21T00:21:30;11.47;;;6.93;;
11984;SDS011;6052;53.246;10.368;2024-02-21T00:24:00;19.53;;;7.83;;
11984;SDS011;6052;53.246;10.368;2024-02-21T00:26:29;16.27;;;8.03;;
11984;SDS011;6052;53.246;10.368;2024-02-21T00:28:59;21.20;;;8.30;;
11984;SDS011;6052;53.246;10.368;2024-02-21T00:31:33;13.07;;;7.43;;
11984;SDS011;6052;53.246;10.368;2024-02-21T00:34:03;15.53;;;8.17;;
11984;SDS011;6052;53.246;10.368;2024-02-21T00:36:36;18.63;;;8.07;;
11984;SDS011;6052;53.246;10.368;2024-02-21T00:39:06;14.37;;;8.10;;
11984;SDS011;6052;53.246;10.368;2024-02-21T00:41:35;19.07;;;8.87;;
11984;SDS011;6052;53.246;10.368;2024-02-21T00:44:05;23.30;;;9.03;;
11984;SDS011;6052;53.246;10.368;2024-02-21T00:46:36;15.93;;;7.97;;
11984;SDS011;6052;53.246;10.368;2024-02-21T00:49:07;20.43;;;7.37;;
11984;SDS011;6052;53.246;10.368;2024-02-21T00:51:39;20.10;;;7.43;;
11984;SDS011;6052;53.246;10.368;2024-02-21T00:54:09;20.37;;;8.23;;
11984;SDS011;6052;53.246;10.368;2024-02-21T00:56:39;15.30;;;7.70;;
11984;SDS011;6052;53.246;10.368;2024-02-21T00:59:09;21.67;;;8.27;;
11984;SDS011;6052;53.246;10.368;2024-02-21T01:01:38;18.33;;;7.87;;
11984;SDS011;6052;53.246;10.368;2024-02-21T01:04:09;15.97;;;7.63;;
11984;SDS011;6052;53.246;10.368;2024-02-21T01:06:42;16.37;;;7.77;;
11984;SDS011;6052;53.246;10.368;2024-02-21T01:09:12;15.20;;;8.17;;
11984;SDS011;6052;53.246;10.368;2024-02-21T01:11:42;14.70;;;7.77;;
11984;SDS011;6052;53.246;10.368;2024-02-21T01:14:11;17.13;;;9.03;;
11984;SDS011;6052;53.246;10.368;2024-02-21T01:16:41;18.20;;;7.53;;
11984;SDS011;6052;53.246;10.368;2024-02-21T01:19:11;14.27;;;8.13;;
11984;SDS011;6052;53.246;10.368;2024-02-21T01:21:44;14.40;;;7.73;;
11984;SDS011;6052;53.246;10.368;2024-02-21T01:24:13;17.77;;;8.20;;
11984;SDS011;6052;53.246;10.368;2024-02-21T01:26:43;18.87;;;7.87;;
11984;SDS011;6052;53.246;10.368;2024-02-21T01:29:13;14.67;;;8.63;;
11984;SDS011;6052;53.246;10.368;2024-02-21T01:31:42;18.10;;;8.77;;
11984;SDS011;6052;53.246;10.368;2024-02-21T01:34:14;17.63;;;8.70;;
11984;SDS011;6052;53.246;10.368;2024-02-21T01:36:46;24.50;;;10.07;;
11984;SDS011;6052;53.246;10.368;2024-02-21T01:39:16;18.50;;;9.43;;
11984;SDS011;6052;53.246;10.368;2024-02-21T01:41:46;15.97;;;8.43;;
11984;SDS011;6052;53.246;10.368;2024-02-21T01:44:15;19.10;;;9.33;;
11984;SDS011;6052;53.246;10.368;2024-02-21T01:46:45;19.93;;;9.50;;
11984;SDS011;6052;53.246;10.368;2024-02-21T01:49:15;15.03;;;9.30;;
11984;SDS011;6052;53.246;10.368;2024-02-21T01:51:48;23.57;;;10.27;;
11984;SDS011;6052;53.246;10.368;2024-02-21T01:54:18;16.27;;;9.57;;
11984;SDS011;6052;53.246;10.368;2024-02-21T01:56:48;18.37;;;10.17;;
11984;SDS011;6052;53.246;10.368;2024-02-21T01:59:19;20.03;;;9.77;;
11984;SDS011;6052;53.246;10.368;2024-02-21T02:01:51;18.07;;;10.23;;
11984;SDS011;6052;53.246;10.368;2024-02-21T02:04:21;22.70;;;10.03;;
11984;SDS011;6052;53.246;10.368;2024-02-21T02:06:56;19.87;;;9.77;;
11984;SDS011;6052;53.246;10.368;2024-02-21T02:09:29;23.37;;;10.47;;
11984;SDS011;6052;53.246;10.368;2024-02-21T02:11:58;21.07;;;10.23;;
11984;SDS011;6052;53.246;10.368;2024-02-21T02:14:29;21.13;;;10.67;;
11984;SDS011;6052;53.246;10.368;2024-02-21T02:16:59;24.90;;;10.50;;
11984;SDS011;6052;53.246;10.368;2024-02-21T02:19:28;17.60;;;9.60;;
11984;SDS011;6052;53.246;10.368;2024-02-21T02:22:03;21.17;;;9.83;;
11984;SDS011;6052;53.246;10.368;2024-02-21T02:24:42;17.40;;;10.03;;
11984;SDS011;6052;53.246;10.368;2024-02-21T02:27:11;21.60;;;10.70;;
11984;SDS011;6052;53.246;10.368;2024-02-21T02:29:41;28.77;;;10.70;;
11984;SDS011;6052;53.246;10.368;2024-02-21T02:32:11;19.23;;;9.93;;
11984;SDS011;6052;53.246;10.368;2024-02-21T02:34:41;18.13;;;9.97;;
11984;SDS011;6052;53.246;10.368;2024-02-21T02:37:11;21.00;;;10.50;;
11984;SDS011;6052;53.246;10.368;2024-02-21T02:39:43;19.27;;;9.67;;
11984;SDS011;6052;53.246;10.368;2024-02-21T02:42:13;18.43;;;10.60;;
11984;SDS011;6052;53.246;10.368;2024-02-21T02:44:43;17.00;;;9.90;;
11984;SDS011;6052;53.246;10.368;2024-02-21T02:47:13;18.83;;;9.90;;
11984;SDS011;6052;53.246;10.368;2024-02-21T02:49:42;18.93;;;10.47;;
11984;SDS011;6052;53.246;10.368;2024-02-21T02:52:17;20.60;;;10.83;;
11984;SDS011;6052;53.246;10.368;2024-02-21T02:54:49;26.27;;;10.60;;
11984;SDS011;6052;53.246;10.368;2024-02-21T02:57:21;16.00;;;9.27;;
11984;SDS011;6052;53.246;10.368;2024-02-21T02:59:51;22.40;;;11.17;;
11984;SDS011;6052;53.246;10.368;2024-02-21T03:02:21;21.53;;;10.50;;
11984;SDS011;6052;53.246;10.368;2024-02-21T03:04:51;21.27;;;10.90;;
11984;SDS011;6052;53.246;10.368;2024-02-21T03:07:21;27.10;;;12.30;;
11984;SDS011;6052;53.246;10.368;2024-02-21T03:09:53;20.17;;;11.47;;
11984;SDS011;6052;53.246;10.368;2024-02-21T03:12:23;19.40;;;10.63;;
11984;SDS011;6052;53.246;10.368;2024-02-21T03:14:54;17.73;;;10.50;;
11984;SDS011;6052;53.246;10.368;2024-02-21T03:17:24;21.63;;;10.63;;
11984;SDS011;6052;53.246;10.368;2024-02-21T03:19:54;23.50;;;12.33;;
11984;SDS011;6052;53.246;10.368;2024-02-21T03:22:25;21.90;;;10.87;;
11984;SDS011;6052;53.246;10.368;2024-02-21T03:24:58;22.93;;;11.20;;
11984;SDS011;6052;53.246;10.368;2024-02-21T03:27:27;20.67;;;10.63;;
11984;SDS011;6052;53.246;10.368;2024-02-21T03:29:57;19.23;;;10.87;;
11984;SDS011;6052;53.246;10.368;2024-02-21T03:32:27;24.97;;;11.80;;
11984;SDS011;6052;53.246;10.368;2024-02-21T03:34:57;26.77;;;11.63;;
11984;SDS011;6052;53.246;10.368;2024-02-21T03:37:27;22.67;;;11.33;;
11984;SDS011;6052;53.246;10.368;2024-02-21T03:39:59;21.03;;;11.03;;
11984;SDS011;6052;53.246;10.368;2024-02-21T03:42:29;19.43;;;10.80;;
11984;SDS011;6052;53.246;10.368;2024-02-21T03:44:59;21.63;;;10.60;;
11984;SDS011;6052;53.246;10.368;2024-02-21T03:47:30;23.37;;;10.80;;
11984;SDS011;6052;53.246;10.368;2024-02-21T03:50:00;21.40;;;11.47;;
11984;SDS011;6052;53.246;10.368;2024-02-21T03:52:30;23.63;;;10.80;;
11984;SDS011;6052;53.246;10.368;2024-02-21T03:55:02;26.30;;;11.13;;
11984;SDS011;6052;53.246;10.368;2024-02-21T03:57:34;26.00;;;10.67;;
11984;SDS011;6052;53.246;10.368;2024-02-21T04:00:05;20.93;;;9.50;;
11984;SDS011;6052;53.246;10.368;2024-02-21T04:02:38;21.83;;;10.40;;
11984;SDS011;6052;53.246;10.368;2024-02-21T04:05:07;20.40;;;9.70;;
11984;SDS011;6052;53.246;10.368;2024-02-21T04:07:39;17.87;;;9.83;;
11984;SDS011;6052;53.246;10.368;2024-02-21T04:10:11;18.43;;;10.13;;
11984;SDS011;6052;53.246;10.368;2024-02-21T04:12:42;20.77;;;10.07;;
11984;SDS011;6052;53.246;10.368;2024-02-21T04:15:11;21.93;;;10.90;;
11984;SDS011;6052;53.246;10.368;2024-02-21T04:17:41;21.50;;;10.93;;
11984;SDS011;6052;53.246;10.368;2024-02-21T04:20:13;19.97;;;9.60;;
11984;SDS011;6052;53.246;10.368;2024-02-21T04:22:44;17.03;;;9.77;;
11984;SDS011;6052;53.246;10.368;2024-02-21T04:25:17;20.23;;;10.03;;
11984;SDS011;6052;53.246;10.368;2024-02-21T04:27:47;16.20;;;9.43;;
11984;SDS011;6052;53.246;10.368;2024-02-21T04:30:17;24.57;;;10.33;;
11984;SDS011;6052;53.246;10.368;2024-02-21T04:32:47;18.20;;;10.13;;
11984;SDS011;6052;53.246;10.368;2024-02-21T04:35:16;19.17;;;10.37;;
11984;SDS011;6052;53.246;10.368;2024-02-21T04:37:46;19.23;;;10.07;;
11984;SDS011;6052;53.246;10.368;2024-02-21T04:40:19;21.50;;;10.63;;
11984;SDS011;6052;53.246;10.368;2024-02-21T04:42:49;22.27;;;10.57;;
11984;SDS011;6052;53.246;10.368;2024-02-21T04:45:18;21.60;;;9.87;;
11984;SDS011;6052;53.246;10.368;2024-02-21T04:47:48;22.70;;;10.47;;
11984;SDS011;6052;53.246;10.368;2024-02-21T04:50:18;25.27;;;10.80;;
11984;SDS011;6052;53.246;10.368;2024-02-21T04:52:48;15.90;;;8.80;;
11984;SDS011;6052;53.246;10.368;2024-02-21T04:55:21;19.30;;;9.97;;
11984;SDS011;6052;53.246;10.368;2024-02-21T04:57:51;19.37;;;10.03;;
11984;SDS011;6052;53.246;10.368;2024-02-21T05:00:20;20.97;;;9.10;;
11984;SDS011;6052;53.246;10.368;2024-02-21T05:02:50;20.53;;;9.73;;
11984;SDS011;6052;53.246;10.368;2024-02-21T05:05:20;21.07;;;9.17;;
11984;SDS011;6052;53.246;10.368;2024-02-21T05:07:50;22.93;;;10.10;;
11984;SDS011;6052;53.246;10.368;2024-02-21T05:10:22;16.83;;;9.20;;
11984;SDS011;6052;53.246;10.368;2024-02-21T05:12:52;16.03;;;9.07;;
11984;SDS011;6052;53.246;10.368;2024-02-21T05:15:21;18.83;;;9.80;;
11984;SDS011;6052;53.246;10.368;2024-02-21T05:17:51;17.57;;;9.37;;
11984;SDS011;6052;53.246;10.368;2024-02-21T05:20:21;15.90;;;9.40;;
11984;SDS011;6052;53.246;10.368;2024-02-21T05:22:51;17.17;;;9.57;;
11984;SDS011;6052;53.246;10.368;2024-02-21T05:25:24;17.50;;;9.87;;
11984;SDS011;6052;53.246;10.368;2024-02-21T05:27:54;16.00;;;9.13;;
11984;SDS011;6052;53.246;10.368;2024-02-21T05:30:28;21.10;;;10.03;;
11984;SDS011;6052;53.246;10.368;2024-02-21T05:32:57;17.23;;;9.47;;
11984;SDS011;6052;53.246;10.368;2024-02-21T05:35:28;17.93;;;9.13;;
11984;SDS011;6052;53.246;10.368;2024-02-21T05:37:58;15.77;;;8.53;;
11984;SDS011;6052;53.246;10.368;2024-02-21T05:40:34;16.37;;;9.10;;
11984;SDS011;6052;53.246;10.368;2024-02-21T05:43:04;13.73;;;8.33;;
11984;SDS011;6052;53.246;10.368;2024-02-21T05:45:34;15.90;;;8.60;;
11984;SDS011;6052;53.246;10.368;2024-02-21T05:48:04;15.23;;;8.50;;
11984;SDS011;6052;53.246;10.368;2024-02-21T05:50:35;17.10;;;8.43;;
11984;SDS011;6052;53.246;10.368;2024-02-21T05:53:04;19.67;;;9.57;;
11984;SDS011;6052;53.246;10.368;2024-02-21T05:55:38;12.90;;;7.73;;
11984;SDS011;6052;53.246;10.368;2024-02-21T05:58:08;15.70;;;8.03;;
11984;SDS011;6052;53.246;10.368;2024-02-21T06:00:40;14.30;;;8.03;;
11984;SDS011;6052;53.246;10.368;2024-02-21T06:03:10;15.43;;;7.63;;
11984;SDS011;6052;53.246;10.368;2024-02-21T06:05:39;14.70;;;7.67;;
11984;SDS011;6052;53.246;10.368;2024-02-21T06:08:09;13.93;;;8.07;;
11984;SDS011;6052;53.246;10.368;2024-02-21T06:10:42;13.30;;;7.77;;
11984;SDS011;6052;53.246;10.368;2024-02-21T06:13:12;13.67;;;8.30;;
11984;SDS011;6052;53.246;10.368;2024-02-21T06:15:41;13.23;;;7.47;;
11984;SDS011;6052;53.246;10.368;2024-02-21T06:18:11;14.80;;;7.77;;
11984;SDS011;6052;53.246;10.368;2024-02-21T06:20:41;11.33;;;6.97;;
11984;SDS011;6052;53.246;10.368;2024-02-21T06:23:12;17.00;;;7.60;;
11984;SDS011;6052;53.246;10.368;2024-02-21T06:25:47;13.03;;;7.27;;
11984;SDS011;6052;53.246;10.368;2024-02-21T06:28:16;13.63;;;7.07;;
11984;SDS011;6052;53.246;10.368;2024-02-21T06:30:47;12.63;;;6.73;;
11984;SDS011;6052;53.246;10.368;2024-02-21T06:33:16;10.43;;;6.87;;
11984;SDS011;6052;53.246;10.368;2024-02-21T06:35:49;12.47;;;6.73;;
11984;SDS011;6052;53.246;10.368;2024-02-21T06:38:19;15.47;;;6.40;;
11984;SDS011;6052;53.246;10.368;2024-02-21T06:40:52;13.50;;;6.00;;
11984;SDS011;6052;53.246;10.368;2024-02-21T06:43:22;12.67;;;7.00;;
11984;SDS011;6052;53.246;10.368;2024-02-21T06:45:52;10.77;;;6.63;;
11984;SDS011;6052;53.246;10.368;2024-02-21T06:48:23;9.13;;;6.20;;
11984;SDS011;6052;53.246;10.368;2024-02-21T06:50:53;9.73;;;6.33;;
11984;SDS011;6052;53.246;10.368;2024-02-21T06:53:22;9.00;;;6.07;;
11984;SDS011;6052;53.246;10.368;2024-02-21T06:55:55;10.27;;;6.40;;
11984;SDS011;6052;53.246;10.368;2024-02-21T06:58:25;11.53;;;6.43;;
11984;SDS011;6052;53.246;10.368;2024-02-21T07:00:55;12.77;;;5.43;;
11984;SDS011;6052;53.246;10.368;2024-02-21T07:03:24;7.97;;;5.63;;
11984;SDS011;6052;53.246;10.368;2024-02-21T07:05:54;9.03;;;5.70;;
11984;SDS011;6052;53.246;10.368;2024-02-21T07:08:24;7.43;;;5.40;;
11984;SDS011;6052;53.246;10.368;2024-02-21T07:10:56;8.50;;;5.27;;
11984;SDS011;6052;53.246;10.368;2024-02-21T07:13:28;8.07;;;5.37;;
11984;SDS011;6052;53.246;10.368;2024-02-21T07:15:58;8.27;;;5.00;;
11984;SDS011;6052;53.246;10.368;2024-02-21T07:18:28;10.23;;;6.00;;
11984;SDS011;6052;53.246;10.368;2024-02-21T07:20:58;7.27;;;4.83;;
11984;SDS011;6052;53.246;10.368;2024-02-21T07:23:28;8.53;;;4.77;;
11984;SDS011;6052;53.246;10.368;2024-02-21T07:26:00;9.73;;;5.13;;
11984;SDS011;6052;53.246;10.368;2024-02-21T07:28:30;8.77;;;4.93;;
11984;SDS011;6052;53.246;10.368;2024-02-21T07:31:00;7.53;;;4.77;;
11984;SDS011;6052;53.246;10.368;2024-02-21T07:33:30;7.63;;;4.50;;
11984;SDS011;6052;53.246;10.368;2024-02-21T07:36:05;7.90;;;4.30;;
11984;SDS011;6052;53.246;10.368;2024-02-21T07:38:37;6.23;;;4.47;;
11984;SDS011;6052;53.246;10.368;2024-02-21T07:41:09;6.33;;;4.80;;
11984;SDS011;6052;53.246;10.368;2024-02-21T07:43:39;7.50;;;4.63;;
11984;SDS011;6052;53.246;10.368;2024-02-21T07:46:09;5.90;;;4.20;;
11984;SDS011;6052;53.246;10.368;2024-02-21T07:48:39;6.57;;;4.03;;
11984;SDS011;6052;53.246;10.368;2024-02-21T07:51:08;6.33;;;4.10;;
11984;SDS011;6052;53.246;10.368;2024-02-21T07:53:38;7.30;;;4.20;;
11984;SDS011;6052;53.246;10.368;2024-02-21T07:56:14;6.13;;;3.97;;
11984;SDS011;6052;53.246;10.368;2024-02-21T07:58:44;8.67;;;4.53;;
11984;SDS011;6052;53.246;10.368;2024-02-21T08:01:18;6.10;;;4.20;;
11984;SDS011;6052;53.246;10.368;2024-02-21T08:03:49;4.97;;;4.20;;
11984;SDS011;6052;53.246;10.368;2024-02-21T08:06:19;8.70;;;5.20;;
11984;SDS011;6052;53.246;10.368;2024-02-21T08:08:49;6.07;;;4.10;;
11984;SDS011;6052;53.246;10.368;2024-02-21T08:11:21;7.33;;;4.27;;
11984;SDS011;6052;53.246;10.368;2024-02-21T08:13:51;8.40;;;4.00;;
11984;SDS011;6052;53.246;10.368;2024-02-21T08:16:21;5.87;;;4.27;;
11984;SDS011;6052;53.246;10.368;2024-02-21T08:18:52;5.37;;;3.97;;
11984;SDS011;6052;53.246;10.368;2024-02-21T08:21:22;8.97;;;4.47;;
11984;SDS011;6052;53.246;10.368;2024-02-21T08:23:52;5.73;;;4.13;;
11984;SDS011;6052;53.246;10.368;2024-02-21T08:26:24;9.07;;;4.60;;
11984;SDS011;6052;53.246;10.368;2024-02-21T08:28:56;7.20;;;4.77;;
11984;SDS011;6052;53.246;10.368;2024-02-21T08:31:27;7.33;;;4.63;;
11984;SDS011;6052;53.246;10.368;2024-02-21T08:33:58;8.93;;;5.70;;
11984;SDS011;6052;53.246;10.368;2024-02-21T08:36:30;7.60;;;4.50;;
11984;SDS011;6052;53.246;10.368;2024-02-21T08:39:00;7.57;;;4.50;;
11984;SDS011;6052;53.246;10.368;2024-02-21T08:41:34;8.40;;;4.63;;
11984;SDS011;6052;53.246;10.368;2024-02-21T08:44:22;7.67;;;4.40;;
11984;SDS011;6052;53.246;10.368;2024-02-21T08:46:53;6.63;;;4.77;;
11984;SDS011;6052;53.246;10.368;2024-02-21T08:49:23;8.50;;;5.03;;
11984;SDS011;6052;53.246;10.368;2024-02-21T08:52:00;9.87;;;4.83;;
11984;SDS011;6052;53.246;10.368;2024-02-21T08:54:30;9.20;;;5.40;;
11984;SDS011;6052;53.246;10.368;2024-02-21T08:57:03;7.33;;;4.87;;
11984;SDS011;6052;53.246;10.368;2024-02-21T08:59:33;6.30;;;4.67;;
11984;SDS011;6052;53.246;10.368;2024-02-21T09:02:03;8.70;;;4.73;;
11984;SDS011;6052;53.246;10.368;2024-02-21T09:04:36;6.77;;;4.27;;
11984;SDS011;6052;53.246;10.368;2024-02-21T09:07:05;7.10;;;5.07;;
11984;SDS011;6052;53.246;10.368;2024-02-21T09:09:35;7.27;;;4.80;;
11984;SDS011;6052;53.246;10.368;2024-02-21T09:12:08;7.43;;;4.63;;
11984;SDS011;6052;53.246;10.368;2024-02-21T09:14:38;7.30;;;4.43;;
11984;SDS011;6052;53.246;10.368;2024-02-21T09:17:08;5.87;;;4.27;;
11984;SDS011;6052;53.246;10.368;2024-02-21T09:19:39;7.20;;;4.53;;
11984;SDS011;6052;53.246;10.368;2024-02-21T09:22:08;5.87;;;4.13;;
11984;SDS011;6052;53.246;10.368;2024-02-21T09:24:38;6.97;;;4.87;;
11984;SDS011;6052;53.246;10.368;2024-02-21T09:27:11;8.07;;;4.83;;
11984;SDS011;6052;53.246;10.368;2024-02-21T09:29:40;6.97;;;4.43;;
11984;SDS011;6052;53.246;10.368;2024-02-21T09:32:10;6.43;;;4.77;;
11984;SDS011;6052;53.246;10.368;2024-02-21T09:34:40;6.27;;;4.60;;
11984;SDS011;6052;53.246;10.368;2024-02-21T09:37:10;7.40;;;5.07;;
11984;SDS011;6052;53.246;10.368;2024-02-21T09:39:40;7.83;;;4.73;;
11984;SDS011;6052;53.246;10.368;2024-02-21T09:42:12;8.67;;;5.17;;
11984;SDS011;6052;53.246;10.368;2024-02-21T09:44:43;7.60;;;4.90;;
11984;SDS011;6052;53.246;10.368;2024-02-21T09:47:17;8.83;;;5.43;;
11984;SDS011;6052;53.246;10.368;2024-02-21T09:49:49;7.87;;;5.43;;
11984;SDS011;6052;53.246;10.368;2024-02-21T09:52:20;9.73;;;6.23;;
11984;SDS011;6052;53.246;10.368;2024-02-21T09:54:51;9.47;;;6.83;;
11984;SDS011;6052;53.246;10.368;2024-02-21T09:57:26;11.17;;;7.07;;
11984;SDS011;6052;53.246;10.368;2024-02-21T09:59:56;14.97;;;8.30;;
11984;SDS011;6052;53.246;10.368;2024-02-21T10:02:26;13.57;;;8.03;;
11984;SDS011;6052;53.246;10.368;2024-02-21T10:04:56;14.33;;;8.00;;
11984;SDS011;6052;53.246;10.368;2024-02-21T10:07:26;16.93;;;9.27;;
11984;SDS011;6052;53.246;10.368;2024-02-21T10:10:00;18.80;;;9.50;;
11984;SDS011;6052;53.246;10.368;2024-02-21T10:12:33;21.47;;;9.80;;
11984;SDS011;6052;53.246;10.368;2024-02-21T10:15:03;17.33;;;9.33;;
11984;SDS011;6052;53.246;10.368;2024-02-21T10:17:34;13.93;;;8.47;;
11984;SDS011;6052;53.246;10.368;2024-02-21T10:20:07;19.77;;;9.10;;
11984;SDS011;6052;53.246;10.368;2024-02-21T10:22:38;19.23;;;9.37;;
11984;SDS011;6052;53.246;10.368;2024-02-21T10:25:08;15.67;;;9.77;;
11984;SDS011;6052;53.246;10.368;2024-02-21T10:27:40;14.20;;;9.57;;
11984;SDS011;6052;53.246;10.368;2024-02-21T10:30:12;15.97;;;9.50;;
11984;SDS011;6052;53.246;10.368;2024-02-21T10:32:53;17.27;;;9.00;;
11984;SDS011;6052;53.246;10.368;2024-02-21T10:35:27;15.87;;;9.23;;
11984;SDS011;6052;53.246;10.368;2024-02-21T10:37:58;15.63;;;8.27;;
11984;SDS011;6052;53.246;10.368;2024-02-21T10:40:30;12.63;;;7.93;;
11984;SDS011;6052;53.246;10.368;2024-02-21T10:43:03;18.37;;;8.23;;
11984;SDS011;6052;53.246;10.368;2024-02-21T10:45:35;16.67;;;7.87;;
11984;SDS011;6052;53.246;10.368;2024-02-21T10:48:08;13.70;;;8.17;;
11984;SDS011;6052;53.246;10.368;2024-02-21T10:50:44;16.83;;;8.27;;
11984;SDS011;6052;53.246;10.368;2024-02-21T10:53:28;16.47;;;8.37;;
11984;SDS011;6052;53.246;10.368;2024-02-21T10:56:10;13.37;;;7.17;;
11984;SDS011;6052;53.246;10.368;2024-02-21T10:58:48;12.53;;;6.93;;
11984;SDS011;6052;53.246;10.368;2024-02-21T11:01:19;13.60;;;6.10;;
11984;SDS011;6052;53.246;10.368;2024-02-21T11:03:51;12.03;;;6.23;;
11984;SDS011;6052;53.246;10.368;2024-02-21T11:06:23;21.13;;;8.03;;
11984;SDS011;6052;53.246;10.368;2024-02-21T11:09:02;12.17;;;6.63;;
11984;SDS011;6052;53.246;10.368;2024-02-21T11:11:33;10.20;;;6.20;;
11984;SDS011;6052;53.246;10.368;2024-02-21T11:14:10;11.63;;;5.90;;
11984;SDS011;6052;53.246;10.368;2024-02-21T11:16:41;12.07;;;5.83;;
11984;SDS011;6052;53.246;10.368;2024-02-21T11:19:18;9.20;;;5.77;;
11984;SDS011;6052;53.246;10.368;2024-02-21T11:21:50;12.40;;;6.43;;
11984;SDS011;6052;53.246;10.368;2024-02-21T11:24:27;12.63;;;6.00;;
11984;SDS011;6052;53.246;10.368;2024-02-21T11:27:07;10.53;;;5.77;;
11984;SDS011;6052;53.246;10.368;2024-02-21T11:29:43;10.73;;;6.17;;
11984;SDS011;6052;53.246;10.368;2024-02-21T11:32:14;10.73;;;6.03;;
11984;SDS011;6052;53.246;10.368;2024-02-21T11:34:55;16.27;;;7.00;;
11984;SDS011;6052;53.246;10.368;2024-02-21T11:37:29;10.27;;;6.23;;
11984;SDS011;6052;53.246;10.368;2024-02-21T11:40:04;11.70;;;6.57;;
11984;SDS011;6052;53.246;10.368;2024-02-21T11:42:38;11.43;;;6.73;;
11984;SDS011;6052;53.246;10.368;2024-02-21T11:45:11;12.30;;;7.43;;
11984;SDS011;6052;53.246;10.368;2024-02-21T11:47:44;12.07;;;6.93;;
11984;SDS011;6052;53.246;10.368;2024-02-21T11:50:15;11.47;;;6.83;;
11984;SDS011;6052;53.246;10.368;2024-02-21T11:52:48;12.70;;;7.53;;
11984;SDS011;6052;53.246;10.368;2024-02-21T11:55:18;12.43;;;7.10;;
11984;SDS011;6052;53.246;10.368;2024-02-21T11:57:48;13.43;;;7.77;;
11984;SDS011;6052;53.246;10.368;2024-02-21T12:00:21;15.50;;;8.43;;
11984;SDS011;6052;53.246;10.368;2024-02-21T12:02:51;16.20;;;9.20;;
11984;SDS011;6052;53.246;10.368;2024-02-21T12:05:22;13.33;;;8.83;;
11984;SDS011;6052;53.246;10.368;2024-02-21T12:07:53;13.93;;;9.13;;
11984;SDS011;6052;53.246;10.368;2024-02-21T12:10:25;18.67;;;9.90;;
11984;SDS011;6052;53.246;10.368;2024-02-21T12:13:04;11.93;;;8.80;;
11984;SDS011;6052;53.246;10.368;2024-02-21T12:15:38;17.90;;;9.03;;
11984;SDS011;6052;53.246;10.368;2024-02-21T12:18:08;18.10;;;9.80;;
11984;SDS011;6052;53.246;10.368;2024-02-21T12:20:39;18.87;;;9.77;;
11984;SDS011;6052;53.246;10.368;2024-02-21T12:23:10;14.47;;;8.33;;
11984;SDS011;6052;53.246;10.368;2024-02-21T12:25:40;16.13;;;9.40;;
11984;SDS011;6052;53.246;10.368;2024-02-21T12:28:10;14.30;;;9.30;;
11984;SDS011;6052;53.246;10.368;2024-02-21T12:30:42;15.00;;;9.47;;
11984;SDS011;6052;53.246;10.368;2024-02-21T12:33:12;19.07;;;9.30;;
11984;SDS011;6052;53.246;10.368;2024-02-21T12:35:42;14.10;;;8.17;;
11984;SDS011;6052;53.246;10.368;2024-02-21T12:38:12;14.03;;;8.30;;
11984;SDS011;6052;53.246;10.368;2024-02-21T12:40:42;16.80;;;9.33;;
11984;SDS011;6052;53.246;10.368;2024-02-21T12:43:12;14.37;;;8.10;;
11984;SDS011;6052;53.246;10.368;2024-02-21T12:45:47;12.47;;;7.53;;
11984;SDS011;6052;53.246;10.368;2024-02-21T12:48:17;15.40;;;8.93;;
11984;SDS011;6052;53.246;10.368;2024-02-21T12:50:48;16.43;;;7.70;;
11984;SDS011;6052;53.246;10.368;2024-02-21T12:53:19;12.43;;;7.80;;
11984;SDS011;6052;53.246;10.368;2024-02-21T12:55:58;15.10;;;7.93;;
11984;SDS011;6052;53.246;10.368;2024-02-21T12:58:28;16.37;;;7.47;;
11984;SDS011;6052;53.246;10.368;2024-02-21T13:01:01;15.90;;;7.37;;
11984;SDS011;6052;53.246;10.368;2024-02-21T13:03:31;10.53;;;7.23;;
11984;SDS011;6052;53.246;10.368;2024-02-21T13:06:00;10.67;;;6.97;;
11984;SDS011;6052;53.246;10.368;2024-02-21T13:08:30;11.83;;;6.87;;
11984;SDS011;6052;53.246;10.368;2024-02-21T13:11:01;12.13;;;6.57;;
11984;SDS011;6052;53.246;10.368;2024-02-21T13:13:32;12.65;;;6.32;;
11984;SDS011;6052;53.246;10.368;2024-02-21T13:16:04;8.77;;;5.97;;
11984;SDS011;6052;53.246;10.368;2024-02-21T13:18:36;11.60;;;6.47;;
11984;SDS011;6052;53.246;10.368;2024-02-21T13:21:09;13.40;;;6.53;;
11984;SDS011;6052;53.246;10.368;2024-02-21T13:23:39;8.60;;;5.67;;
11984;SDS011;6052;53.246;10.368;2024-02-21T13:26:10;10.10;;;5.97;;
11984;SDS011;6052;53.246;10.368;2024-02-21T13:28:40;11.83;;;6.10;;
11984;SDS011;6052;53.246;10.368;2024-02-21T13:31:14;11.87;;;6.07;;
11984;SDS011;6052;53.246;10.368;2024-02-21T13:33:45;12.73;;;6.27;;
11984;SDS011;6052;53.246;10.368;2024-02-21T13:36:15;8.03;;;6.10;;
11984;SDS011;6052;53.246;10.368;2024-02-21T13:38:45;8.00;;;5.53;;
11984;SDS011;6052;53.246;10.368;2024-02-21T13:41:15;10.40;;;6.10;;
11984;SDS011;6052;53.246;10.368;2024-02-21T13:43:45;10.50;;;5.20;;
11984;SDS011;6052;53.246;10.368;2024-02-21T13:46:18;8.43;;;4.70;;
11984;SDS011;6052;53.246;10.368;2024-02-21T13:48:48;8.70;;;4.73;;
11984;SDS011;6052;53.246;10.368;2024-02-21T13:51:18;7.33;;;4.87;;
11984;SDS011;6052;53.246;10.368;2024-02-21T13:53:48;11.70;;;5.03;;
11984;SDS011;6052;53.246;10.368;2024-02-21T13:56:18;7.57;;;4.70;;
11984;SDS011;6052;53.246;10.368;2024-02-21T13:58:48;7.20;;;3.90;;
11984;SDS011;6052;53.246;10.368;2024-02-21T14:01:20;10.10;;;4.37;;
11984;SDS011;6052;53.246;10.368;2024-02-21T14:03:50;6.90;;;4.23;;
11984;SDS011;6052;53.246;10.368;2024-02-21T14:06:20;10.43;;;4.10;;
11984;SDS011;6052;53.246;10.368;2024-02-21T14:08:50;7.23;;;4.17;;
11984;SDS011;6052;53.246;10.368;2024-02-21T14:11:20;7.03;;;3.40;;
11984;SDS011;6052;53.246;10.368;2024-02-21T14:13:50;7.77;;;3.63;;
11984;SDS011;6052;53.246;10.368;2024-02-21T14:16:26;8.33;;;3.93;;
11984;SDS011;6052;53.246;10.368;2024-02-21T14:18:56;7.87;;;3.50;;
11984;SDS011;6052;53.246;10.368;2024-02-21T14:21:26;6.83;;;3.37;;
11984;SDS011;6052;53.246;10.368;2024-02-21T14:23:56;4.55;;;3.20;;
11984;SDS011;6052;53.246;10.368;2024-02-21T14:26:29;3.77;;;3.10;;
11984;SDS011;6052;53.246;10.368;2024-02-21T14:28:59;6.97;;;3.00;;
11984;SDS011;6052;53.246;10.368;2024-02-21T14:31:32;8.63;;;3.30;;
11984;SDS011;6052;53.246;10.368;2024-02-21T14:34:02;5.27;;;2.63;;
11984;SDS011;6052;53.246;10.368;2024-02-21T14:36:32;5.23;;;2.80;;
11984;SDS011;6052;53.246;10.368;2024-02-21T14:39:01;4.37;;;2.63;;
11984;SDS011;6052;53.246;10.368;2024-02-21T14:41:31;4.63;;;2.90;;
11984;SDS011;6052;53.246;10.368;2024-02-21T14:44:01;7.17;;;2.70;;
11984;SDS011;6052;53.246;10.368;2024-02-21T14:46:34;7.23;;;2.63;;
11984;SDS011;6052;53.246;10.368;2024-02-21T14:49:04;3.83;;;2.53;;
11984;SDS011;6052;53.246;10.368;2024-02-21T14:51:34;6.77;;;2.93;;
11984;SDS011;6052;53.246;10.368;2024-02-21T14:54:04;4.73;;;2.20;;
11984;SDS011;6052;53.246;10.368;2024-02-21T14:56:34;6.57;;;2.28;;
11984;SDS011;6052;53.246;10.368;2024-02-21T14:59:05;3.97;;;2.47;;